sensor_id;sensor_type;location;lat;lon;timestamp;pressure;altitude;pressure_sealevel;temperature;humidity
23172;BME280;11754;42.664;23.594;2023-09-19T00:01:06;95818.00;;;17.12;66.80
23172;BME280;11754;42.664;23.594;2023-09-19T00:03:34;95824.16;;;17.12;67.13
23172;BME280;11754;42.664;23.594;2023-09-19T00:06:02;95822.47;;;17.04;67.19
23172;BME280;11754;42.664;23.594;2023-09-19T00:08:28;95828.66;;;17.12;67.02
23172;BME280;11754;42.664;23.594;2023-09-19T00:10:54;95823.34;;;17.12;67.17
23172;BME280;11754;42.664;23.594;2023-09-19T00:13:20;95823.34;;;17.12;66.95
23172;BME280;11754;42.664;23.594;2023-09-19T00:15:47;95817.41;;;17.10;67.51
23172;BME280;11754;42.664;23.594;2023-09-19T00:18:16;95806.09;;;17.08;67.41
23172;BME280;11754;42.664;23.594;2023-09-19T00:20:44;95815.13;;;17.07;67.40
23172;BME280;11754;42.664;23.594;2023-09-19T00:23:13;95817.78;;;17.07;67.30
23172;BME280;11754;42.664;23.594;2023-09-19T00:25:39;95801.78;;;17.00;67.38
23172;BME280;11754;42.664;23.594;2023-09-19T00:28:05;95813.88;;;17.02;67.50
23172;BME280;11754;42.664;23.594;2023-09-19T00:30:32;95809.16;;;17.04;67.45
23172;BME280;11754;42.664;23.594;2023-09-19T00:32:58;95808.56;;;17.02;67.53
23172;BME280;11754;42.664;23.594;2023-09-19T00:35:23;95806.28;;;16.99;67.57
23172;BME280;11754;42.664;23.594;2023-09-19T00:37:49;95805.25;;;17.00;67.63
23172;BME280;11754;42.664;23.594;2023-09-19T00:40:15;95793.09;;;16.91;67.78
23172;BME280;11754;42.664;23.594;2023-09-19T00:42:41;95781.19;;;16.87;67.88
23172;BME280;11754;42.664;23.594;2023-09-19T00:45:08;95802.75;;;16.92;67.95
23172;BME280;11754;42.664;23.594;2023-09-19T00:47:42;95797.44;;;16.92;67.93
23172;BME280;11754;42.664;23.594;2023-09-19T00:50:09;95803.16;;;16.89;67.95
23172;BME280;11754;42.664;23.594;2023-09-19T00:52:37;95797.19;;;16.87;67.97
23172;BME280;11754;42.664;23.594;2023-09-19T00:55:05;95807.84;;;16.87;68.01
23172;BME280;11754;42.664;23.594;2023-09-19T00:57:31;95801.28;;;16.83;67.89
23172;BME280;11754;42.664;23.594;2023-09-19T00:59:58;95794.94;;;16.84;67.83
23172;BME280;11754;42.664;23.594;2023-09-19T01:02:25;95800.66;;;16.81;67.79
23172;BME280;11754;42.664;23.594;2023-09-19T01:04:54;95787.09;;;16.76;67.97
23172;BME280;11754;42.664;23.594;2023-09-19T01:07:19;95798.78;;;16.75;67.98
23172;BME280;11754;42.664;23.594;2023-09-19T01:09:45;95796.47;;;16.72;68.10
23172;BME280;11754;42.664;23.594;2023-09-19T01:12:10;95794.47;;;16.74;68.11
23172;BME280;11754;42.664;23.594;2023-09-19T01:14:55;95788.69;;;16.70;67.96
23172;BME280;11754;42.664;23.594;2023-09-19T01:17:29;95775.31;;;16.64;68.12
23172;BME280;11754;42.664;23.594;2023-09-19T01:28:31;95795.50;;;16.51;68.95
23172;BME280;11754;42.664;23.594;2023-09-19T01:31:02;95796.75;;;16.49;68.76
23172;BME280;11754;42.664;23.594;2023-09-19T01:33:57;95794.25;;;16.47;68.96
23172;BME280;11754;42.664;23.594;2023-09-19T01:36:28;95792.84;;;16.45;68.87
23172;BME280;11754;42.664;23.594;2023-09-19T01:38:54;95789.31;;;16.44;68.84
23172;BME280;11754;42.664;23.594;2023-09-19T01:41:36;95789.75;;;16.41;69.04
23172;BME280;11754;42.664;23.594;2023-09-19T01:44:06;95784.81;;;16.38;69.08
23172;BME280;11754;42.664;23.594;2023-09-19T01:46:37;95783.13;;;16.37;68.80
23172;BME280;11754;42.664;23.594;2023-09-19T01:49:15;95781.88;;;16.33;69.12
23172;BME280;11754;42.664;23.594;2023-09-19T01:51:53;95782.25;;;16.30;69.22
23172;BME280;11754;42.664;23.594;2023-09-19T01:54:26;95780.19;;;16.25;69.27
23172;BME280;11754;42.664;23.594;2023-09-19T01:57:07;95781.44;;;16.23;69.72
23172;BME280;11754;42.664;23.594;2023-09-19T01:59:43;95768.69;;;16.18;69.91
23172;BME280;11754;42.664;23.594;2023-09-19T02:02:11;95761.28;;;16.14;70.23
23172;BME280;11754;42.664;23.594;2023-09-19T02:04:37;95764.16;;;16.12;70.20
23172;BME280;11754;42.664;23.594;2023-09-19T02:07:03;95758.78;;;16.05;70.17
23172;BME280;11754;42.664;23.594;2023-09-19T02:09:31;95771.69;;;16.08;70.09
23172;BME280;11754;42.664;23.594;2023-09-19T02:11:56;95772.69;;;16.07;70.32
23172;BME280;11754;42.664;23.594;2023-09-19T02:14:21;95776.59;;;16.05;70.28
23172;BME280;11754;42.664;23.594;2023-09-19T02:16:47;95785.00;;;16.08;70.29
23172;BME280;11754;42.664;23.594;2023-09-19T02:19:15;95757.63;;;15.93;70.69
23172;BME280;11754;42.664;23.594;2023-09-19T02:21:40;95775.94;;;16.03;70.41
23172;BME280;11754;42.664;23.594;2023-09-19T02:24:07;95774.47;;;16.00;70.65
23172;BME280;11754;42.664;23.594;2023-09-19T02:26:33;95758.66;;;15.92;70.91
23172;BME280;11754;42.664;23.594;2023-09-19T02:29:02;95772.19;;;15.97;70.95
23172;BME280;11754;42.664;23.594;2023-09-19T02:31:30;95772.59;;;15.94;71.12
23172;BME280;11754;42.664;23.594;2023-09-19T02:33:56;95771.72;;;15.87;71.08
23172;BME280;11754;42.664;23.594;2023-09-19T02:36:21;95790.97;;;15.89;71.19
23172;BME280;11754;42.664;23.594;2023-09-19T02:38:48;95798.31;;;15.87;71.23
23172;BME280;11754;42.664;23.594;2023-09-19T02:41:14;95772.41;;;15.74;71.20
23172;BME280;11754;42.664;23.594;2023-09-19T02:43:39;95774.44;;;15.72;71.34
23172;BME280;11754;42.664;23.594;2023-09-19T02:46:05;95772.88;;;15.78;71.23
23172;BME280;11754;42.664;23.594;2023-09-19T02:48:30;95766.34;;;15.80;71.21
23172;BME280;11754;42.664;23.594;2023-09-19T02:50:57;95764.06;;;15.77;71.02
23172;BME280;11754;42.664;23.594;2023-09-19T02:53:22;95765.09;;;15.76;71.26
23172;BME280;11754;42.664;23.594;2023-09-19T02:55:49;95769.97;;;15.73;71.31
23172;BME280;11754;42.664;23.594;2023-09-19T02:58:15;95763.38;;;15.69;71.37
23172;BME280;11754;42.664;23.594;2023-09-19T03:00:41;95760.72;;;15.69;71.40
23172;BME280;11754;42.664;23.594;2023-09-19T03:03:12;95756.59;;;15.66;71.31
23172;BME280;11754;42.664;23.594;2023-09-19T03:05:38;95749.19;;;15.61;71.37
23172;BME280;11754;42.664;23.594;2023-09-19T03:08:03;95739.03;;;15.50;72.11
23172;BME280;11754;42.664;23.594;2023-09-19T03:10:30;95717.28;;;15.40;71.84
23172;BME280;11754;42.664;23.594;2023-09-19T03:12:56;95729.19;;;15.44;71.87
23172;BME280;11754;42.664;23.594;2023-09-19T03:15:22;95722.59;;;15.40;72.12
23172;BME280;11754;42.664;23.594;2023-09-19T03:17:48;95724.97;;;15.35;72.47
23172;BME280;11754;42.664;23.594;2023-09-19T03:20:14;95718.47;;;15.37;72.27
23172;BME280;11754;42.664;23.594;2023-09-19T03:22:45;95721.13;;;15.37;72.09
23172;BME280;11754;42.664;23.594;2023-09-19T03:25:13;95729.03;;;15.31;71.93
23172;BME280;11754;42.664;23.594;2023-09-19T03:27:39;95727.78;;;15.27;71.89
23172;BME280;11754;42.664;23.594;2023-09-19T03:30:06;95739.16;;;15.21;71.77
23172;BME280;11754;42.664;23.594;2023-09-19T03:32:36;95733.75;;;15.14;71.40
23172;BME280;11754;42.664;23.594;2023-09-19T03:35:02;95732.41;;;15.03;71.40
23172;BME280;11754;42.664;23.594;2023-09-19T03:37:31;95752.47;;;15.06;71.66
23172;BME280;11754;42.664;23.594;2023-09-19T03:39:56;95739.41;;;15.04;71.45
23172;BME280;11754;42.664;23.594;2023-09-19T03:42:22;95741.31;;;14.96;71.28
23172;BME280;11754;42.664;23.594;2023-09-19T03:44:51;95730.53;;;14.97;71.29
23172;BME280;11754;42.664;23.594;2023-09-19T03:47:17;95735.56;;;14.92;71.61
23172;BME280;11754;42.664;23.594;2023-09-19T03:49:44;95734.66;;;14.85;71.75
23172;BME280;11754;42.664;23.594;2023-09-19T03:52:09;95731.75;;;14.80;71.76
23172;BME280;11754;42.664;23.594;2023-09-19T03:54:35;95734.50;;;14.86;71.56
23172;BME280;11754;42.664;23.594;2023-09-19T03:57:00;95730.94;;;14.79;71.82
23172;BME280;11754;42.664;23.594;2023-09-19T03:59:25;95730.28;;;14.77;72.40
23172;BME280;11754;42.664;23.594;2023-09-19T04:01:51;95730.84;;;14.73;72.89
23172;BME280;11754;42.664;23.594;2023-09-19T04:04:21;95741.09;;;14.76;72.65
23172;BME280;11754;42.664;23.594;2023-09-19T04:06:46;95731.94;;;14.63;73.14
23172;BME280;11754;42.664;23.594;2023-09-19T04:09:12;95747.50;;;14.66;73.27
23172;BME280;11754;42.664;23.594;2023-09-19T04:11:38;95750.81;;;14.69;73.64
23172;BME280;11754;42.664;23.594;2023-09-19T04:14:04;95745.88;;;14.65;72.98
23172;BME280;11754;42.664;23.594;2023-09-19T04:16:29;95748.25;;;14.60;72.89
23172;BME280;11754;42.664;23.594;2023-09-19T04:18:55;95745.31;;;14.55;72.66
23172;BME280;11754;42.664;23.594;2023-09-19T04:21:20;95746.88;;;14.64;72.72
23172;BME280;11754;42.664;23.594;2023-09-19T04:23:45;95753.19;;;14.63;72.20
23172;BME280;11754;42.664;23.594;2023-09-19T04:26:11;95751.53;;;14.62;72.26
23172;BME280;11754;42.664;23.594;2023-09-19T04:28:37;95770.78;;;14.64;72.54
23172;BME280;11754;42.664;23.594;2023-09-19T04:31:03;95767.66;;;14.76;72.34
23172;BME280;11754;42.664;23.594;2023-09-19T04:33:29;95775.88;;;14.81;72.23
23172;BME280;11754;42.664;23.594;2023-09-19T04:35:54;95773.50;;;14.86;72.28
23172;BME280;11754;42.664;23.594;2023-09-19T04:38:21;95773.09;;;14.89;73.05
23172;BME280;11754;42.664;23.594;2023-09-19T04:40:47;95772.38;;;14.95;73.48
23172;BME280;11754;42.664;23.594;2023-09-19T04:43:12;95772.00;;;14.98;73.51
23172;BME280;11754;42.664;23.594;2023-09-19T04:45:38;95772.09;;;15.05;73.72
23172;BME280;11754;42.664;23.594;2023-09-19T04:48:05;95772.91;;;15.05;74.39
23172;BME280;11754;42.664;23.594;2023-09-19T04:50:34;95770.13;;;15.13;74.48
23172;BME280;11754;42.664;23.594;2023-09-19T04:53:00;95763.44;;;15.18;74.49
23172;BME280;11754;42.664;23.594;2023-09-19T04:55:26;95760.41;;;15.21;74.24
23172;BME280;11754;42.664;23.594;2023-09-19T04:57:52;95762.91;;;15.22;74.10
23172;BME280;11754;42.664;23.594;2023-09-19T05:00:23;95756.47;;;15.17;74.12
23172;BME280;11754;42.664;23.594;2023-09-19T05:02:49;95768.25;;;15.29;74.17
23172;BME280;11754;42.664;23.594;2023-09-19T05:05:16;95755.25;;;15.34;73.83
23172;BME280;11754;42.664;23.594;2023-09-19T05:07:42;95743.00;;;15.39;73.43
23172;BME280;11754;42.664;23.594;2023-09-19T05:10:09;95755.88;;;15.57;72.78
23172;BME280;11754;42.664;23.594;2023-09-19T05:12:35;95751.09;;;15.68;72.12
23172;BME280;11754;42.664;23.594;2023-09-19T05:15:02;95757.28;;;15.75;72.15
23172;BME280;11754;42.664;23.594;2023-09-19T05:17:28;95761.19;;;15.79;72.31
23172;BME280;11754;42.664;23.594;2023-09-19T05:19:54;95745.50;;;15.84;71.91
23172;BME280;11754;42.664;23.594;2023-09-19T05:22:19;95752.91;;;15.89;71.95
23172;BME280;11754;42.664;23.594;2023-09-19T05:24:45;95751.31;;;15.94;72.20
23172;BME280;11754;42.664;23.594;2023-09-19T05:27:14;95744.41;;;16.00;72.13
23172;BME280;11754;42.664;23.594;2023-09-19T05:29:44;95736.47;;;16.06;72.04
23172;BME280;11754;42.664;23.594;2023-09-19T05:32:11;95726.09;;;16.18;71.90
23172;BME280;11754;42.664;23.594;2023-09-19T05:34:37;95734.06;;;16.46;71.41
23172;BME280;11754;42.664;23.594;2023-09-19T05:37:02;95741.91;;;16.61;71.09
23172;BME280;11754;42.664;23.594;2023-09-19T05:39:28;95736.72;;;16.81;70.87
23172;BME280;11754;42.664;23.594;2023-09-19T05:41:53;95730.63;;;17.00;70.37
23172;BME280;11754;42.664;23.594;2023-09-19T05:44:20;95726.63;;;17.24;69.79
23172;BME280;11754;42.664;23.594;2023-09-19T05:46:45;95726.22;;;17.41;69.59
23172;BME280;11754;42.664;23.594;2023-09-19T05:49:13;95716.81;;;17.51;69.15
23172;BME280;11754;42.664;23.594;2023-09-19T05:51:39;95731.41;;;17.69;68.81
23172;BME280;11754;42.664;23.594;2023-09-19T05:54:04;95723.44;;;17.82;68.07
23172;BME280;11754;42.664;23.594;2023-09-19T05:56:30;95721.38;;;17.97;67.62
23172;BME280;11754;42.664;23.594;2023-09-19T05:58:56;95716.00;;;18.17;67.13
23172;BME280;11754;42.664;23.594;2023-09-19T06:01:22;95715.19;;;18.30;66.22
23172;BME280;11754;42.664;23.594;2023-09-19T06:03:47;95725.19;;;18.55;65.93
23172;BME280;11754;42.664;23.594;2023-09-19T06:06:14;95720.22;;;18.65;64.78
23172;BME280;11754;42.664;23.594;2023-09-19T06:08:39;95709.72;;;18.83;64.50
23172;BME280;11754;42.664;23.594;2023-09-19T06:11:05;95710.09;;;18.93;63.36
23172;BME280;11754;42.664;23.594;2023-09-19T06:13:34;95707.94;;;19.09;63.27
23172;BME280;11754;42.664;23.594;2023-09-19T06:16:00;95700.81;;;19.34;63.12
23172;BME280;11754;42.664;23.594;2023-09-19T06:18:33;95696.06;;;19.68;62.28
23172;BME280;11754;42.664;23.594;2023-09-19T06:20:59;95687.34;;;19.79;61.27
23172;BME280;11754;42.664;23.594;2023-09-19T06:23:25;95695.69;;;19.89;60.60
23172;BME280;11754;42.664;23.594;2023-09-19T06:25:52;95687.38;;;19.98;60.14
23172;BME280;11754;42.664;23.594;2023-09-19T06:28:18;95695.94;;;20.31;59.06
23172;BME280;11754;42.664;23.594;2023-09-19T06:30:49;95703.13;;;20.56;58.41
23172;BME280;11754;42.664;23.594;2023-09-19T06:33:15;95700.00;;;20.77;57.66
23172;BME280;11754;42.664;23.594;2023-09-19T06:35:40;95696.63;;;20.82;56.74
23172;BME280;11754;42.664;23.594;2023-09-19T06:38:07;95702.16;;;20.69;56.90
23172;BME280;11754;42.664;23.594;2023-09-19T06:40:36;95693.44;;;20.73;56.62
23172;BME280;11754;42.664;23.594;2023-09-19T06:43:01;95698.34;;;20.76;56.62
23172;BME280;11754;42.664;23.594;2023-09-19T06:45:27;95686.09;;;20.99;55.61
23172;BME280;11754;42.664;23.594;2023-09-19T06:47:53;95687.75;;;21.00;55.35
23172;BME280;11754;42.664;23.594;2023-09-19T06:50:23;95678.94;;;21.11;54.54
23172;BME280;11754;42.664;23.594;2023-09-19T06:52:54;95685.75;;;21.25;53.75
23172;BME280;11754;42.664;23.594;2023-09-19T06:55:39;95675.97;;;21.49;53.27
23172;BME280;11754;42.664;23.594;2023-09-19T06:58:05;95680.00;;;21.94;52.15
23172;BME280;11754;42.664;23.594;2023-09-19T07:00:51;95680.38;;;22.33;51.07
23172;BME280;11754;42.664;23.594;2023-09-19T07:03:16;95680.69;;;22.60;50.48
23172;BME280;11754;42.664;23.594;2023-09-19T07:05:43;95677.50;;;22.74;49.27
23172;BME280;11754;42.664;23.594;2023-09-19T07:08:10;95692.63;;;23.04;49.01
23172;BME280;11754;42.664;23.594;2023-09-19T07:10:38;95690.81;;;23.50;48.09
23172;BME280;11754;42.664;23.594;2023-09-19T07:13:07;95686.97;;;23.74;47.41
23172;BME280;11754;42.664;23.594;2023-09-19T07:15:38;95676.66;;;24.05;46.22
23172;BME280;11754;42.664;23.594;2023-09-19T07:18:07;95681.81;;;24.24;45.17
23172;BME280;11754;42.664;23.594;2023-09-19T07:20:34;95698.44;;;24.54;44.91
23172;BME280;11754;42.664;23.594;2023-09-19T07:23:00;95701.25;;;24.81;44.08
23172;BME280;11754;42.664;23.594;2023-09-19T07:25:26;95694.59;;;24.89;43.45
23172;BME280;11754;42.664;23.594;2023-09-19T07:27:52;95700.53;;;24.91;43.32
23172;BME280;11754;42.664;23.594;2023-09-19T07:30:20;95702.91;;;25.09;43.13
23172;BME280;11754;42.664;23.594;2023-09-19T07:32:45;95691.78;;;25.23;42.44
23172;BME280;11754;42.664;23.594;2023-09-19T07:35:10;95687.81;;;25.30;42.38
23172;BME280;11754;42.664;23.594;2023-09-19T07:37:37;95683.91;;;25.43;42.27
23172;BME280;11754;42.664;23.594;2023-09-19T07:40:03;95684.88;;;25.32;42.06
23172;BME280;11754;42.664;23.594;2023-09-19T07:42:33;95676.91;;;25.47;41.95
23172;BME280;11754;42.664;23.594;2023-09-19T07:45:01;95681.47;;;25.74;41.80
23172;BME280;11754;42.664;23.594;2023-09-19T07:47:26;95670.06;;;25.67;41.10
23172;BME280;11754;42.664;23.594;2023-09-19T07:49:52;95673.53;;;25.89;40.68
23172;BME280;11754;42.664;23.594;2023-09-19T07:52:18;95665.84;;;26.08;40.92
23172;BME280;11754;42.664;23.594;2023-09-19T07:54:44;95667.38;;;26.36;40.26
23172;BME280;11754;42.664;23.594;2023-09-19T07:57:10;95673.75;;;26.57;39.52
23172;BME280;11754;42.664;23.594;2023-09-19T07:59:37;95673.81;;;26.67;39.80
23172;BME280;11754;42.664;23.594;2023-09-19T08:02:04;95671.44;;;26.86;38.89
23172;BME280;11754;42.664;23.594;2023-09-19T08:04:30;95667.06;;;26.75;39.34
23172;BME280;11754;42.664;23.594;2023-09-19T08:06:59;95676.28;;;26.79;39.50
23172;BME280;11754;42.664;23.594;2023-09-19T08:09:26;95674.81;;;27.08;39.21
23172;BME280;11754;42.664;23.594;2023-09-19T08:11:52;95671.09;;;27.40;38.76
23172;BME280;11754;42.664;23.594;2023-09-19T08:14:18;95679.81;;;27.73;37.51
23172;BME280;11754;42.664;23.594;2023-09-19T08:16:44;95678.25;;;27.87;36.67
23172;BME280;11754;42.664;23.594;2023-09-19T08:19:10;95681.78;;;27.93;37.52
23172;BME280;11754;42.664;23.594;2023-09-19T08:21:36;95675.28;;;28.04;36.53
23172;BME280;11754;42.664;23.594;2023-09-19T08:24:01;95671.19;;;28.22;36.77
23172;BME280;11754;42.664;23.594;2023-09-19T08:26:29;95672.28;;;28.16;36.31
23172;BME280;11754;42.664;23.594;2023-09-19T08:28:56;95675.56;;;28.38;36.34
23172;BME280;11754;42.664;23.594;2023-09-19T08:31:22;95666.00;;;28.61;36.04
23172;BME280;11754;42.664;23.594;2023-09-19T08:33:50;95668.41;;;28.78;35.76
23172;BME280;11754;42.664;23.594;2023-09-19T08:36:16;95664.47;;;29.10;35.08
23172;BME280;11754;42.664;23.594;2023-09-19T08:38:42;95657.84;;;29.36;34.76
23172;BME280;11754;42.664;23.594;2023-09-19T08:41:08;95656.13;;;29.51;33.90
23172;BME280;11754;42.664;23.594;2023-09-19T08:43:35;95655.75;;;29.67;33.57
23172;BME280;11754;42.664;23.594;2023-09-19T08:46:09;95649.91;;;29.84;33.75
23172;BME280;11754;42.664;23.594;2023-09-19T08:48:39;95643.09;;;30.21;33.08
23172;BME280;11754;42.664;23.594;2023-09-19T08:51:15;95636.47;;;29.98;32.67
23172;BME280;11754;42.664;23.594;2023-09-19T08:53:47;95648.16;;;29.99;32.44
23172;BME280;11754;42.664;23.594;2023-09-19T08:56:18;95639.22;;;29.93;33.04
23172;BME280;11754;42.664;23.594;2023-09-19T08:58:50;95646.94;;;30.15;32.46
23172;BME280;11754;42.664;23.594;2023-09-19T09:01:19;95650.03;;;30.37;32.27
23172;BME280;11754;42.664;23.594;2023-09-19T09:03:53;95633.41;;;30.63;32.21
23172;BME280;11754;42.664;23.594;2023-09-19T09:06:23;95629.94;;;31.05;31.79
23172;BME280;11754;42.664;23.594;2023-09-19T09:08:50;95634.53;;;31.48;31.13
23172;BME280;11754;42.664;23.594;2023-09-19T09:11:17;95632.84;;;31.90;30.88
23172;BME280;11754;42.664;23.594;2023-09-19T09:13:47;95619.28;;;32.31;30.10
23172;BME280;11754;42.664;23.594;2023-09-19T09:16:14;95624.59;;;32.55;28.71
23172;BME280;11754;42.664;23.594;2023-09-19T09:18:42;95627.44;;;32.91;28.88
23172;BME280;11754;42.664;23.594;2023-09-19T09:21:10;95632.25;;;33.36;28.33
23172;BME280;11754;42.664;23.594;2023-09-19T09:23:35;95620.31;;;33.32;27.92
23172;BME280;11754;42.664;23.594;2023-09-19T09:26:01;95621.31;;;34.08;26.94
23172;BME280;11754;42.664;23.594;2023-09-19T09:28:32;95610.31;;;34.62;26.49
23172;BME280;11754;42.664;23.594;2023-09-19T09:30:59;95611.34;;;35.32;25.70
23172;BME280;11754;42.664;23.594;2023-09-19T09:33:28;95599.06;;;35.99;24.16
23172;BME280;11754;42.664;23.594;2023-09-19T09:35:54;95600.78;;;37.15;23.75
23172;BME280;11754;42.664;23.594;2023-09-19T09:38:26;95589.53;;;38.82;21.82
23172;BME280;11754;42.664;23.594;2023-09-19T09:40:59;95583.94;;;40.12;21.04
23172;BME280;11754;42.664;23.594;2023-09-19T09:43:33;95593.72;;;41.36;18.77
23172;BME280;11754;42.664;23.594;2023-09-19T09:49:01;95584.22;;;41.88;17.97
23172;BME280;11754;42.664;23.594;2023-09-19T09:51:49;95575.31;;;43.40;17.06
23172;BME280;11754;42.664;23.594;2023-09-19T09:54:29;95575.75;;;44.80;16.00
23172;BME280;11754;42.664;23.594;2023-09-19T09:57:08;95568.47;;;45.90;15.23
23172;BME280;11754;42.664;23.594;2023-09-19T09:59:50;95568.16;;;45.36;15.68
23172;BME280;11754;42.664;23.594;2023-09-19T10:02:18;95559.47;;;45.41;15.19
23172;BME280;11754;42.664;23.594;2023-09-19T10:04:50;95556.13;;;45.14;15.38
23172;BME280;11754;42.664;23.594;2023-09-19T10:07:34;95561.13;;;44.09;15.99
23172;BME280;11754;42.664;23.594;2023-09-19T10:10:39;95556.44;;;43.23;16.35
23172;BME280;11754;42.664;23.594;2023-09-19T10:13:09;95562.81;;;42.08;17.71
23172;BME280;11754;42.664;23.594;2023-09-19T10:15:42;95559.94;;;40.60;18.67
23172;BME280;11754;42.664;23.594;2023-09-19T10:18:20;95551.56;;;39.56;19.44
23172;BME280;11754;42.664;23.594;2023-09-19T10:20:46;95554.59;;;38.74;21.08
23172;BME280;11754;42.664;23.594;2023-09-19T10:23:13;95546.75;;;38.52;21.71
23172;BME280;11754;42.664;23.594;2023-09-19T10:25:42;95550.34;;;38.89;21.56
23172;BME280;11754;42.664;23.594;2023-09-19T10:28:13;95545.13;;;39.12;20.97
23172;BME280;11754;42.664;23.594;2023-09-19T10:30:44;95548.13;;;39.72;20.52
23172;BME280;11754;42.664;23.594;2023-09-19T10:33:15;95542.13;;;42.67;17.46
23172;BME280;11754;42.664;23.594;2023-09-19T10:35:46;95535.88;;;47.44;14.12
23172;BME280;11754;42.664;23.594;2023-09-19T10:38:13;95515.53;;;49.21;12.93
23172;BME280;11754;42.664;23.594;2023-09-19T10:40:39;95512.81;;;48.69;13.22
23172;BME280;11754;42.664;23.594;2023-09-19T10:43:12;95526.00;;;47.04;14.24
23172;BME280;11754;42.664;23.594;2023-09-19T10:45:40;95523.13;;;46.11;15.10
23172;BME280;11754;42.664;23.594;2023-09-19T10:48:06;95523.31;;;45.48;15.21
23172;BME280;11754;42.664;23.594;2023-09-19T10:50:52;95506.88;;;45.29;15.47
23172;BME280;11754;42.664;23.594;2023-09-19T10:53:20;95509.56;;;47.27;14.47
23172;BME280;11754;42.664;23.594;2023-09-19T10:55:56;95508.78;;;47.23;14.14
23172;BME280;11754;42.664;23.594;2023-09-19T10:58:30;95498.84;;;48.13;13.85
23172;BME280;11754;42.664;23.594;2023-09-19T11:01:08;95497.88;;;48.34;13.25
23172;BME280;11754;42.664;23.594;2023-09-19T11:03:43;95508.03;;;46.58;14.11
23172;BME280;11754;42.664;23.594;2023-09-19T11:06:17;95490.91;;;45.15;15.21
23172;BME280;11754;42.664;23.594;2023-09-19T11:11:44;95497.97;;;42.82;17.02
23172;BME280;11754;42.664;23.594;2023-09-19T11:30:41;95486.91;;;38.77;20.71
23172;BME280;11754;42.664;23.594;2023-09-19T11:33:30;95470.50;;;38.68;21.10
23172;BME280;11754;42.664;23.594;2023-09-19T11:36:14;95476.06;;;38.56;21.42
23172;BME280;11754;42.664;23.594;2023-09-19T11:43:51;95464.69;;;41.09;19.40
23172;BME280;11754;42.664;23.594;2023-09-19T11:46:17;95454.28;;;41.02;18.95
23172;BME280;11754;42.664;23.594;2023-09-19T11:48:53;95459.72;;;41.76;18.13
23172;BME280;11754;42.664;23.594;2023-09-19T11:53:50;95452.22;;;45.94;15.30
23172;BME280;11754;42.664;23.594;2023-09-19T11:56:22;95441.78;;;47.23;14.04
23172;BME280;11754;42.664;23.594;2023-09-19T11:58:50;95434.63;;;47.18;14.12
23172;BME280;11754;42.664;23.594;2023-09-19T12:01:33;95435.44;;;45.79;14.86
23172;BME280;11754;42.664;23.594;2023-09-19T12:04:02;95432.00;;;44.40;16.01
23172;BME280;11754;42.664;23.594;2023-09-19T12:06:30;95427.97;;;42.65;16.96
23172;BME280;11754;42.664;23.594;2023-09-19T12:08:58;95414.50;;;41.29;18.32
23172;BME280;11754;42.664;23.594;2023-09-19T12:11:29;95419.44;;;39.99;19.64
23172;BME280;11754;42.664;23.594;2023-09-19T12:13:59;95418.47;;;39.19;20.13
23172;BME280;11754;42.664;23.594;2023-09-19T12:16:26;95417.94;;;38.61;20.57
23172;BME280;11754;42.664;23.594;2023-09-19T12:18:56;95418.81;;;38.89;21.07
23172;BME280;11754;42.664;23.594;2023-09-19T12:21:31;95419.50;;;40.85;19.32
23172;BME280;11754;42.664;23.594;2023-09-19T12:24:11;95425.59;;;43.54;17.38
23172;BME280;11754;42.664;23.594;2023-09-19T12:26:43;95409.97;;;46.81;14.61
23172;BME280;11754;42.664;23.594;2023-09-19T12:31:51;95412.88;;;47.62;13.85
23172;BME280;11754;42.664;23.594;2023-09-19T12:34:20;95402.56;;;47.52;13.65
23172;BME280;11754;42.664;23.594;2023-09-19T12:36:47;95396.50;;;46.30;14.42
23172;BME280;11754;42.664;23.594;2023-09-19T12:39:22;95401.56;;;44.65;15.70
23172;BME280;11754;42.664;23.594;2023-09-19T12:41:50;95403.75;;;44.38;15.71
23172;BME280;11754;42.664;23.594;2023-09-19T12:44:17;95397.97;;;44.09;16.18
23172;BME280;11754;42.664;23.594;2023-09-19T12:46:44;95382.13;;;46.53;14.36
23172;BME280;11754;42.664;23.594;2023-09-19T12:49:17;95377.81;;;50.35;12.15
23172;BME280;11754;42.664;23.594;2023-09-19T12:51:43;95382.50;;;53.75;10.10
23172;BME280;11754;42.664;23.594;2023-09-19T12:54:09;95372.72;;;56.53;8.75
23172;BME280;11754;42.664;23.594;2023-09-19T12:56:41;95379.72;;;59.27;7.58
23172;BME280;11754;42.664;23.594;2023-09-19T12:59:13;95370.66;;;58.60;7.88
23172;BME280;11754;42.664;23.594;2023-09-19T13:01:42;95368.63;;;57.00;8.15
23172;BME280;11754;42.664;23.594;2023-09-19T13:04:21;95359.22;;;55.14;9.12
23172;BME280;11754;42.664;23.594;2023-09-19T13:06:57;95368.31;;;52.37;10.78
23172;BME280;11754;42.664;23.594;2023-09-19T13:09:26;95366.81;;;50.67;11.26
23172;BME280;11754;42.664;23.594;2023-09-19T13:12:04;95360.91;;;49.64;11.98
23172;BME280;11754;42.664;23.594;2023-09-19T13:14:32;95360.91;;;52.43;10.54
23172;BME280;11754;42.664;23.594;2023-09-19T13:17:08;95350.16;;;55.19;9.15
23172;BME280;11754;42.664;23.594;2023-09-19T13:19:49;95352.41;;;57.00;7.92
23172;BME280;11754;42.664;23.594;2023-09-19T13:22:45;95343.66;;;58.16;7.66
23172;BME280;11754;42.664;23.594;2023-09-19T13:25:17;95342.75;;;59.56;7.07
23172;BME280;11754;42.664;23.594;2023-09-19T13:27:45;95338.38;;;60.46;6.52
23172;BME280;11754;42.664;23.594;2023-09-19T13:30:11;95343.56;;;61.20;6.32
23172;BME280;11754;42.664;23.594;2023-09-19T13:32:37;95338.31;;;60.87;6.25
23172;BME280;11754;42.664;23.594;2023-09-19T13:35:05;95328.72;;;61.11;6.01
23172;BME280;11754;42.664;23.594;2023-09-19T13:37:31;95338.22;;;61.28;6.04
23172;BME280;11754;42.664;23.594;2023-09-19T13:39:56;95338.69;;;61.21;6.33